Time;durP1;ratioP1;P1;durP2;ratioP2;P2;SDS_P1;SDS_P2;PMS_P1;PMS_P2;Temp;Humidity;BMP_temperature;BMP_pressure;BME280_temperature;BME280_humidity;BME280_pressure;Samples;Min_cycle;Max_cycle;Signal;HPM_P1;HPM_P2
2021/07/16 00:00:14;;;;;;;31.62;20.68;;;;;;;22.01;66.73;100538.75;1694221;81;26528;-71
2021/07/16 00:02:45;;;;;;;32.93;19.95;;;;;;;21.97;66.87;100542.27;1697490;82;27552;-72
2021/07/16 00:05:13;;;;;;;32.23;21.93;;;;;;;21.95;67.08;100533.86;1700818;81;30435;-72
2021/07/16 00:07:41;;;;;;;34.95;21.05;;;;;;;21.94;67.18;100538.45;1696958;82;25843;-72
2021/07/16 00:10:13;;;;;;;31.68;20.88;;;;;;;21.95;67.27;100536.59;1698109;81;26043;-71
2021/07/16 00:12:41;;;;;;;34.08;21.25;;;;;;;21.94;67.34;100538.45;1696978;81;25748;-72
2021/07/16 00:15:11;;;;;;;37.75;22.82;;;;;;;21.93;67.44;100542.19;1700694;81;27380;-71
2021/07/16 00:17:40;;;;;;;;;;;;;;;21.90;67.47;100544.34;1694971;81;25740;-71
2021/07/16 00:20:09;;;;;;;29.30;20.95;;;;;;;21.86;67.74;100549.72;1679269;81;25930;-72
2021/07/16 00:22:37;;;;;;;42.05;21.95;;;;;;;21.82;67.70;100545.55;1658649;83;26100;-71
2021/07/16 00:25:06;;;;;;;37.93;22.05;;;;;;;21.82;67.77;100551.00;1685599;83;25735;-71
2021/07/16 00:27:34;;;;;;;38.28;20.62;;;;;;;21.80;67.81;100549.78;1660645;83;27375;-71
2021/07/16 00:30:06;;;;;;;32.65;21.42;;;;;;;21.79;67.89;100552.65;1690355;82;25864;-71
2021/07/16 00:32:34;;;;;;;35.23;21.05;;;;;;;21.79;68.02;100552.65;1686093;83;26574;-71
2021/07/16 00:35:00;;;;;;;31.10;20.25;;;;;;;21.76;68.09;100554.30;1694010;81;27251;-71
2021/07/16 00:37:26;;;;;;;43.65;22.65;;;;;;;21.75;68.17;100552.06;1665532;83;25844;-71
2021/07/16 00:39:52;;;;;;;32.93;22.22;;;;;;;21.71;68.23;100562.39;1684407;82;28243;-71
2021/07/16 00:42:19;;;;;;;30.32;21.85;;;;;;;21.69;68.40;100561.67;1687446;82;25734;-71
2021/07/16 00:44:45;;;;;;;29.52;19.92;;;;;;;21.68;68.42;100568.13;1674857;81;25812;-71
2021/07/16 00:47:14;;;;;;;31.85;21.15;;;;;;;21.64;68.45;100563.09;1681105;83;26196;-71
2021/07/16 00:49:40;;;;;;;31.25;20.92;;;;;;;21.60;68.52;100565.23;1691630;82;25801;-71
2021/07/16 00:52:10;;;;;;;31.05;21.27;;;;;;;21.54;68.65;100568.52;1686947;83;27619;-71
2021/07/16 00:54:36;;;;;;;;;;;;;;;21.49;68.75;100561.75;1693744;82;26649;-71
2021/07/16 00:57:07;;;;;;;30.35;21.33;;;;;;;21.46;69.01;100572.44;1689105;81;25879;-71
2021/07/16 00:59:32;;;;;;;33.58;21.05;;;;;;;21.42;68.99;100568.27;1693553;82;26086;-71
2021/07/16 01:02:02;;;;;;;29.12;20.72;;;;;;;21.42;69.09;100558.72;1697527;81;26453;-70
2021/07/16 01:04:28;;;;;;;35.63;20.83;;;;;;;21.45;69.24;100554.34;1694904;81;27441;-71
2021/07/16 01:06:55;;;;;;;27.98;20.40;;;;;;;21.47;69.24;100561.89;1706288;81;25709;-71
2021/07/16 01:09:20;;;;;;;34.75;21.02;;;;;;;21.45;69.31;100554.34;1690086;81;26458;-71
2021/07/16 01:11:49;;;;;;;30.90;20.68;;;;;;;21.44;69.39;100552.63;1659863;83;26193;-71
2021/07/16 01:14:16;;;;;;;31.02;21.55;;;;;;;21.43;69.50;100546.80;1679132;82;25725;-71
2021/07/16 01:16:44;;;;;;;32.05;19.67;;;;;;;21.41;69.56;100543.36;1689442;82;27577;-71
2021/07/16 01:19:42;;;;;;;31.95;20.37;;;;;;;21.38;69.65;100544.50;1686852;82;25792;-71
2021/07/16 01:22:10;;;;;;;33.90;20.77;;;;;;;21.37;69.73;100540.55;1673774;82;26551;-71
2021/07/16 01:24:37;;;;;;;35.43;20.65;;;;;;;21.35;69.84;100535.73;1688922;82;26168;-71
2021/07/16 01:27:06;;;;;;;35.50;21.00;;;;;;;21.34;69.91;100534.86;1690082;82;25375;-71
2021/07/16 01:29:36;;;;;;;34.00;22.22;;;;;;;21.33;70.00;100529.05;1689452;83;30948;-71
2021/07/16 01:32:04;;;;;;;31.23;20.43;;;;;;;21.32;70.10;100523.73;1693146;81;25839;-71
2021/07/16 01:34:30;;;;;;;35.35;20.48;;;;;;;21.32;70.21;100521.01;1671528;82;25799;-71
2021/07/16 01:36:56;;;;;;;34.85;21.20;;;;;;;21.33;70.25;100524.09;1702433;81;26524;-71
2021/07/16 01:39:22;;;;;;;32.15;20.15;;;;;;;21.32;70.29;100523.73;1662544;83;25852;-71
2021/07/16 01:41:49;;;;;;;34.70;20.95;;;;;;;21.29;70.37;100524.87;1676969;83;27567;-70
2021/07/16 01:44:14;;;;;;;34.20;21.35;;;;;;;21.28;70.46;100523.65;1687147;81;25907;-70
2021/07/16 01:46:42;;;;;;;34.10;21.27;;;;;;;21.27;70.55;100530.10;1683333;82;26001;-71
2021/07/16 01:49:10;;;;;;;33.15;19.17;;;;;;;21.25;70.59;100533.47;1683879;82;26216;-70
2021/07/16 01:51:36;;;;;;;33.90;20.23;;;;;;;21.24;70.69;100537.19;1680770;81;25704;-70
2021/07/16 01:54:02;;;;;;;29.63;20.25;;;;;;;21.24;70.79;100534.47;1699986;82;27558;-70
2021/07/16 01:56:30;;;;;;;32.65;20.80;;;;;;;21.22;70.85;100527.79;1693995;81;25864;-70
2021/07/16 01:58:58;;;;;;;31.57;19.92;;;;;;;21.22;70.93;100529.66;1665974;83;26620;-70
2021/07/16 02:01:28;;;;;;;31.37;21.17;;;;;;;21.22;71.01;100529.66;1700722;81;26276;-70
2021/07/16 02:03:54;;;;;;;30.17;21.17;;;;;;;21.22;71.05;100531.87;1679400;83;25866;-70
2021/07/16 02:06:20;;;;;;;34.48;19.57;;;;;;;21.18;71.11;100529.03;1685875;81;27515;-70
2021/07/16 02:08:47;;;;;;;30.85;20.68;;;;;;;21.16;71.20;100529.67;1701701;81;26167;-70
2021/07/16 02:11:21;;;;;;;31.07;21.10;;;;;;;21.15;71.25;100528.44;1694816;82;26487;-70
2021/07/16 02:13:46;;;;;;;30.70;21.70;;;;;;;21.13;71.30;100527.72;1674233;84;25792;-70
2021/07/16 02:16:17;;;;;;;38.45;20.80;;;;;;;21.10;71.40;100526.62;1695445;81;25768;-70
2021/07/16 02:18:53;;;;;;;31.90;21.70;;;;;;;21.07;71.45;100529.98;1685549;82;25789;-70
2021/07/16 02:21:21;;;;;;;38.33;23.42;;;;;;;21.02;71.49;100536.34;1670499;83;25773;-70
2021/07/16 02:23:49;;;;;;;36.13;23.55;;;;;;;20.99;71.52;100538.48;1667582;83;25737;-70
2021/07/16 02:26:16;;;;;;;28.50;21.15;;;;;;;20.92;71.66;100542.75;1696365;82;26851;-71
2021/07/16 02:28:44;;;;;;;28.80;21.23;;;;;;;20.89;71.74;100553.91;1688553;82;25783;-70
2021/07/16 02:31:13;;;;;;;39.35;21.27;;;;;;;20.87;71.90;100547.73;1688776;82;25777;-70
2021/07/16 02:33:41;;;;;;;27.07;20.70;;;;;;;20.86;71.98;100544.64;1693273;81;25675;-70
2021/07/16 02:36:10;;;;;;;29.90;19.23;;;;;;;20.88;72.05;100549.46;1689871;81;25956;-70
2021/07/16 02:38:37;;;;;;;36.68;20.60;;;;;;;20.88;72.00;100554.41;1683846;81;26781;-72
2021/07/16 02:41:03;;;;;;;26.02;20.27;;;;;;;20.90;72.12;100563.81;1692359;82;25819;-70
2021/07/16 02:43:30;;;;;;;32.63;21.62;;;;;;;20.93;72.08;100565.77;1687015;82;27537;-70
2021/07/16 02:45:58;;;;;;;26.82;19.12;;;;;;;20.94;72.10;100568.00;1659561;83;25811;-70
2021/07/16 02:48:25;;;;;;;30.50;20.70;;;;;;;20.92;72.11;100569.49;1693190;82;25858;-71
2021/07/16 02:50:51;;;;;;;26.73;20.35;;;;;;;20.93;72.16;100565.77;1678709;81;26148;-70
2021/07/16 02:53:22;;;;;;;33.60;21.42;;;;;;;20.91;72.19;100560.95;1680122;81;25824;-71
2021/07/16 02:55:50;;;;;;;30.92;20.05;;;;;;;20.90;72.19;100551.55;1683094;82;28333;-71
2021/07/16 02:58:16;;;;;;;35.63;19.37;;;;;;;20.88;72.20;100540.79;1691835;82;25860;-71
2021/07/16 03:00:44;;;;;;;34.13;20.12;;;;;;;20.83;72.29;100538.11;1681991;81;25899;-71
2021/07/16 03:03:12;;;;;;;30.08;19.62;;;;;;;20.82;72.33;100539.10;1694525;82;26221;-71
2021/07/16 03:05:38;;;;;;;29.20;18.82;;;;;;;20.80;72.31;100542.00;1681767;82;25768;-71
2021/07/16 03:08:15;;;;;;;25.25;18.07;;;;;;;20.74;72.36;100541.17;1677875;82;27457;-71
2021/07/16 03:10:46;;;;;;;28.05;18.57;;;;;;;20.74;72.49;100546.62;1677256;81;25737;-71
2021/07/16 03:13:18;;;;;;;35.98;20.37;;;;;;;20.73;72.51;100541.67;1683667;83;25865;-71
2021/07/16 03:15:46;;;;;;;31.97;18.70;;;;;;;20.71;72.56;100542.80;1675048;82;26294;-71
2021/07/16 03:18:13;;;;;;;34.18;18.80;;;;;;;20.73;72.66;100544.89;1675628;83;25724;-71
2021/07/16 03:20:43;;;;;;;28.80;19.17;;;;;;;20.74;72.69;100545.25;1693315;81;27580;-71
2021/07/16 03:23:12;;;;;;;28.17;19.80;;;;;;;20.74;72.73;100550.20;1687843;83;25915;-71
2021/07/16 03:25:40;;;;;;;30.20;19.48;;;;;;;20.74;72.78;100544.76;1683146;81;25803;-71
2021/07/16 03:28:11;;;;;;;28.98;19.15;;;;;;;20.74;72.79;100547.48;1697503;83;26060;-71
2021/07/16 03:30:38;;;;;;;33.70;19.80;;;;;;;20.74;72.79;100543.89;1689901;81;32371;-71
2021/07/16 03:33:09;;;;;;;34.30;19.32;;;;;;;20.71;72.83;100545.02;1683363;82;27592;-71
2021/07/16 03:35:35;;;;;;;35.43;18.37;;;;;;;20.70;72.89;100546.02;1701911;81;26374;-71
2021/07/16 03:38:02;;;;;;;38.00;20.23;;;;;;;20.72;72.95;100546.75;1691771;83;25974;-70
2021/07/16 03:40:29;;;;;;;26.35;20.62;;;;;;;20.71;72.96;100542.80;1693115;81;25980;-71
2021/07/16 03:42:59;;;;;;;31.57;21.85;;;;;;;20.73;73.05;100551.70;1683054;81;25675;-70
2021/07/16 03:45:27;;;;;;;33.10;21.15;;;;;;;20.76;73.09;100566.91;1698317;81;27500;-71
2021/07/16 03:47:55;;;;;;;34.25;20.82;;;;;;;20.78;73.05;100563.06;1691704;81;25798;-70
2021/07/16 03:50:22;;;;;;;31.55;21.52;;;;;;;20.78;72.98;100564.42;1682076;82;25852;-71
2021/07/16 03:52:51;;;;;;;35.65;22.02;;;;;;;20.77;72.99;100572.72;1697030;82;25803;-71
2021/07/16 03:55:19;;;;;;;36.20;22.73;;;;;;;20.76;73.07;100565.55;1683841;82;25776;-71
2021/07/16 03:57:50;;;;;;;34.43;21.90;;;;;;;20.73;73.07;100561.23;1699330;81;25728;-71
2021/07/16 04:00:39;;;;;;;33.95;21.45;;;;;;;20.72;73.17;100562.23;1687617;82;26503;-70
2021/07/16 04:03:06;;;;;;;32.98;20.60;;;;;;;20.74;73.20;100570.63;1641480;84;25855;-70
2021/07/16 04:05:34;;;;;;;49.25;36.48;;;;;;;20.77;73.27;100580.40;1661676;84;26018;-70
2021/07/16 04:08:05;;;;;;;37.45;23.60;;;;;;;20.78;73.23;100576.68;1669700;83;25764;-70
2021/07/16 04:10:36;;;;;;;36.83;21.80;;;;;;;20.76;73.21;100579.17;1664372;84;28153;-70
2021/07/16 04:13:05;;;;;;;;;;;;;;;20.77;73.35;100582.26;1671054;83;25853;-70
2021/07/16 04:15:32;;;;;;;32.63;21.02;;;;;;;20.81;73.49;100586.41;1671770;84;25742;-70
2021/07/16 04:18:05;;;;;;;36.33;22.20;;;;;;;20.81;73.37;100582.33;1668071;84;26562;-70
2021/07/16 04:20:35;;;;;;;38.55;23.10;;;;;;;20.81;73.36;100582.33;1664316;83;26418;-70
2021/07/16 04:23:02;;;;;;;38.53;22.67;;;;;;;20.80;73.40;100581.50;1678276;83;26947;-68
2021/07/16 04:25:29;;;;;;;33.35;21.68;;;;;;;20.83;73.44;100583.06;1676282;83;25768;-70
2021/07/16 04:28:00;;;;;;;39.40;23.55;;;;;;;20.80;73.41;100590.16;1656201;83;25725;-70
2021/07/16 04:30:28;;;;;;;32.95;22.10;;;;;;;20.82;73.48;100580.83;1665093;83;26072;-70
2021/07/16 04:32:59;;;;;;;39.15;23.67;;;;;;;20.82;73.51;100582.19;1678424;83;26334;-68
2021/07/16 04:35:27;;;;;;;33.30;22.65;;;;;;;20.85;73.62;100584.65;1673711;83;28224;-69
2021/07/16 04:37:53;;;;;;;40.65;24.23;;;;;;;20.91;73.66;100580.03;1663969;84;26280;-69
2021/07/16 04:40:23;;;;;;;45.90;23.27;;;;;;;20.97;73.69;100578.12;1671083;83;26279;-69
2021/07/16 04:42:54;;;;;;;37.42;22.25;;;;;;;21.01;73.62;100571.41;1661773;83;25825;-70
2021/07/16 04:45:22;;;;;;;39.40;21.87;;;;;;;21.06;73.69;100578.68;1661370;83;25864;-70
2021/07/16 04:47:48;;;;;;;45.15;21.90;;;;;;;21.08;73.63;100580.77;1687766;81;27386;-70
2021/07/16 04:50:17;;;;;;;40.15;22.60;;;;;;;21.20;73.64;100588.36;1687071;82;25945;-70
2021/07/16 04:52:47;;;;;;;33.45;20.45;;;;;;;21.20;73.64;100588.36;1679810;83;26531;-70
2021/07/16 04:55:14;;;;;;;35.73;21.82;;;;;;;21.13;73.69;100571.33;1690391;82;34935;-70
2021/07/16 04:57:41;;;;;;;36.98;18.98;;;;;;;21.35;73.75;100590.27;1685009;82;25858;-72
2021/07/16 05:00:11;;;;;;;30.52;21.57;;;;;;;21.32;73.59;100565.50;1685759;82;27599;-70
2021/07/16 05:02:38;;;;;;;34.45;20.65;;;;;;;21.52;73.68;100577.84;1685850;82;25860;-72
2021/07/16 05:05:07;;;;;;;38.28;21.37;;;;;;;21.52;73.68;100577.84;1686019;82;25823;-72
2021/07/16 05:07:34;;;;;;;32.67;21.95;;;;;;;21.75;73.61;100594.35;1686907;82;26158;-72
2021/07/16 05:10:03;;;;;;;36.90;21.90;;;;;;;21.86;73.49;100600.20;1673703;83;25800;-71
2021/07/16 05:12:32;;;;;;;37.40;21.95;;;;;;;21.91;73.34;100604.73;1672157;83;27537;-72
2021/07/16 05:14:58;;;;;;;33.78;21.82;;;;;;;22.05;73.25;100596.17;1679704;82;25767;-71
2021/07/16 05:17:26;;;;;;;35.85;23.55;;;;;;;22.05;73.25;100596.17;1676270;83;26473;-70
2021/07/16 05:19:52;;;;;;;38.48;24.18;;;;;;;22.09;73.25;100600.34;1689085;83;26119;-71
2021/07/16 05:22:20;;;;;;;28.47;20.95;;;;;;;22.06;73.06;100588.85;1686686;82;26564;-71
2021/07/16 05:24:46;;;;;;;36.42;22.05;;;;;;;22.31;73.12;100598.72;1666809;83;27549;-69
2021/07/16 05:27:12;;;;;;;34.00;21.60;;;;;;;22.31;73.12;100598.72;1660141;84;26295;-67
2021/07/16 05:29:39;;;;;;;30.95;20.05;;;;;;;22.38;72.99;100603.61;1657999;84;25876;-72
2021/07/16 05:32:09;;;;;;;33.75;19.48;;;;;;;22.27;72.88;100577.30;1664487;83;26091;-72
2021/07/16 05:34:37;;;;;;;36.33;19.37;;;;;;;22.46;72.77;100609.22;1653791;84;25701;-72
2021/07/16 05:37:07;;;;;;;34.20;20.75;;;;;;;22.51;72.78;100610.52;1658341;83;27470;-72
2021/07/16 05:39:34;;;;;;;31.82;20.60;;;;;;;22.55;72.58;100611.95;1662624;84;26336;-72
2021/07/16 05:42:03;;;;;;;36.33;21.37;;;;;;;22.62;72.60;100619.06;1669220;84;25800;-71
2021/07/16 05:44:32;;;;;;;33.50;20.50;;;;;;;22.68;72.49;100612.52;1660047;84;26066;-72
2021/07/16 05:46:58;;;;;;;32.78;21.12;;;;;;;22.63;72.45;100586.64;1659581;83;26457;-72
2021/07/16 05:49:24;;;;;;;30.45;19.52;;;;;;;22.68;72.11;100592.53;1657288;84;28117;-72
2021/07/16 05:51:52;;;;;;;26.95;19.90;;;;;;;22.84;72.31;100617.93;1656832;84;25726;-71
2021/07/16 05:54:23;;;;;;;42.75;19.85;;;;;;;22.91;72.23;100617.20;1657115;84;25925;-74
2021/07/16 05:56:50;;;;;;;45.98;17.50;;;;;;;22.98;72.11;100616.97;1662669;84;26137;-73
2021/07/16 05:59:18;;;;;;;38.70;17.90;;;;;;;23.05;72.00;100618.61;1658596;84;25385;-72
2021/07/16 06:01:44;;;;;;;30.12;16.95;;;;;;;23.09;71.87;100614.58;1656562;84;26926;-71
2021/07/16 06:04:10;;;;;;;29.15;18.12;;;;;;;23.16;71.82;100613.48;1669231;83;25335;-73
2021/07/16 06:06:38;;;;;;;28.83;17.67;;;;;;;23.24;71.64;100610.36;1661104;84;26375;-70
2021/07/16 06:09:06;;;;;;;27.27;16.67;;;;;;;23.32;71.51;100615.09;1666616;84;26841;-73
2021/07/16 06:11:33;;;;;;;39.90;19.10;;;;;;;23.39;71.39;100609.87;1666791;84;25844;-72
2021/07/16 06:13:59;;;;;;;26.85;17.85;;;;;;;23.49;71.23;100614.77;1668917;84;27081;-73
2021/07/16 06:16:28;;;;;;;34.75;19.25;;;;;;;23.54;71.07;100617.95;1661307;84;25783;-75
2021/07/16 06:18:56;;;;;;;29.87;17.55;;;;;;;23.59;70.93;100619.23;1659447;84;36080;-73
2021/07/16 06:21:22;;;;;;;26.73;17.50;;;;;;;23.62;70.80;100622.17;1673495;84;26176;-73
2021/07/16 06:23:52;;;;;;;29.65;17.07;;;;;;;23.62;70.57;100632.61;1663034;84;26284;-74
2021/07/16 06:26:19;;;;;;;;;;;;;;;23.60;70.58;100628.30;1666059;84;27482;-74
2021/07/16 06:28:45;;;;;;;27.67;15.28;;;;;;;23.67;70.45;100628.56;1662513;84;26338;-74
2021/07/16 06:31:13;;;;;;;37.78;16.67;;;;;;;23.72;70.38;100629.83;1660244;84;25967;-74
2021/07/16 06:33:39;;;;;;;22.07;14.45;;;;;;;23.78;70.17;100631.95;1665552;84;27324;-74
2021/07/16 06:36:05;;;;;;;32.00;13.00;;;;;;;23.78;69.87;100630.59;1663838;84;25686;-73
2021/07/16 06:38:32;;;;;;;28.30;12.60;;;;;;;23.77;69.52;100636.22;1668408;84;27462;-74
2021/07/16 06:40:58;;;;;;;22.37;12.10;;;;;;;23.69;68.71;100632.87;1659915;84;25909;-60
2021/07/16 06:43:24;;;;;;;28.87;13.28;;;;;;;23.58;68.71;100632.55;1659241;84;26136;-60
2021/07/16 06:45:50;;;;;;;24.82;13.22;;;;;;;23.60;68.62;100629.16;1659075;84;26904;-61
2021/07/16 06:48:16;;;;;;;22.32;11.80;;;;;;;23.61;68.30;100620.45;1661706;84;25863;-60
2021/07/16 06:50:42;;;;;;;21.15;12.78;;;;;;;23.52;67.81;100619.44;1657996;84;29690;-60
2021/07/16 06:53:10;;;;;;;26.00;13.25;;;;;;;23.52;67.94;100618.58;1660162;84;25718;-60
2021/07/16 06:55:39;;;;;;;22.30;13.70;;;;;;;23.55;67.85;100622.41;1664702;84;25728;-60
2021/07/16 06:58:04;;;;;;;21.17;12.65;;;;;;;23.60;67.75;100625.56;1651296;84;27092;-59
2021/07/16 07:00:33;;;;;;;21.02;12.55;;;;;;;23.61;67.54;100617.70;1667688;84;25744;-60
2021/07/16 07:02:58;;;;;;;18.15;12.23;;;;;;;23.58;67.47;100614.77;1659764;84;28524;-60
2021/07/16 07:05:25;;;;;;;17.15;13.83;;;;;;;23.54;67.27;100616.08;1659621;84;27381;-60
2021/07/16 07:07:54;;;;;;;22.62;13.72;;;;;;;23.53;67.22;100612.95;1668250;84;25819;-59
2021/07/16 07:10:21;;;;;;;20.88;13.60;;;;;;;23.53;67.17;100611.59;1661225;84;26162;-60
2021/07/16 07:12:46;;;;;;;15.35;12.65;;;;;;;23.54;67.04;100607.88;1665169;84;25811;-57
2021/07/16 07:15:13;;;;;;;20.30;13.68;;;;;;;23.54;66.97;100607.88;1671874;84;27533;-57
2021/07/16 07:17:43;;;;;;;25.57;14.43;;;;;;;23.51;66.98;100607.28;1666048;84;27225;-67
2021/07/16 07:20:12;;;;;;;24.03;14.33;;;;;;;23.48;66.98;100611.17;1654183;84;26042;-70
2021/07/16 07:22:41;;;;;;;25.17;12.70;;;;;;;23.43;67.12;100612.64;1659944;84;26031;-70
2021/07/16 07:25:10;;;;;;;37.40;14.40;;;;;;;23.40;67.12;100612.97;1659079;84;25788;-68
2021/07/16 07:27:35;;;;;;;30.72;12.28;;;;;;;23.34;67.21;100615.80;1656204;84;27580;-68
2021/07/16 07:30:03;;;;;;;26.20;13.53;;;;;;;23.31;67.13;100612.86;1663684;84;25777;-70
2021/07/16 07:32:30;;;;;;;25.68;12.78;;;;;;;23.25;67.18;100616.69;1662885;84;26535;-71
2021/07/16 07:34:57;;;;;;;21.45;12.20;;;;;;;23.28;67.15;100618.62;1661975;84;26004;-67
2021/07/16 07:37:23;;;;;;;21.57;12.85;;;;;;;23.32;67.15;100615.09;1660219;84;25885;-69
2021/07/16 07:39:50;;;;;;;16.73;11.48;;;;;;;23.40;67.04;100612.97;1670339;84;27500;-66
2021/07/16 07:42:23;;;;;;;17.45;11.97;;;;;;;23.43;66.90;100612.13;1663225;84;25941;-67
2021/07/16 07:44:49;;;;;;;17.10;11.50;;;;;;;23.46;66.72;100618.67;1665380;84;25842;-68
2021/07/16 07:47:16;;;;;;;20.85;12.55;;;;;;;23.46;66.52;100614.56;1666651;84;26810;-69
2021/07/16 07:49:42;;;;;;;15.85;11.50;;;;;;;23.46;66.40;100612.34;1663387;84;25806;-70
2021/07/16 07:52:10;;;;;;;30.50;14.03;;;;;;;23.46;66.34;100609.09;1664651;84;28207;-67
2021/07/16 07:54:36;;;;;;;24.72;13.40;;;;;;;23.53;66.34;100610.73;1658541;84;25856;-67
2021/07/16 07:57:03;;;;;;;21.07;13.60;;;;;;;23.59;66.31;100608.78;1658848;84;25851;-69
2021/07/16 07:59:30;;;;;;;30.17;13.93;;;;;;;23.66;66.26;100609.91;1661375;84;26631;-67
2021/07/16 08:01:56;;;;;;;26.40;14.13;;;;;;;23.75;66.23;100613.61;1668784;84;25859;-68
2021/07/16 08:04:22;;;;;;;22.25;14.25;;;;;;;23.84;66.27;100622.28;1662204;84;27459;-67
2021/07/16 08:06:48;;;;;;;25.82;13.75;;;;;;;23.91;66.16;100624.76;1626919;85;25945;-68
2021/07/16 08:09:15;;;;;;;19.62;12.30;;;;;;;23.96;66.07;100627.90;1660838;84;25843;-65
2021/07/16 08:11:42;;;;;;;27.42;13.53;;;;;;;24.03;66.02;100626.78;1662994;84;26133;-65
2021/07/16 08:14:08;;;;;;;18.82;12.45;;;;;;;24.13;66.12;100630.32;1674404;83;26543;-68
2021/07/16 08:16:34;;;;;;;27.85;12.70;;;;;;;24.32;66.06;100625.25;1667636;83;27329;-69
2021/07/16 08:19:00;;;;;;;22.55;12.00;;;;;;;24.49;65.94;100625.77;1674377;83;25647;-69
2021/07/16 08:21:26;;;;;;;22.10;12.55;;;;;;;24.55;65.40;100634.22;1669803;84;25856;-69
2021/07/16 08:23:52;;;;;;;24.55;12.23;;;;;;;24.56;65.50;100635.94;1682869;83;26127;-67
2021/07/16 08:26:19;;;;;;;19.65;12.13;;;;;;;24.63;65.33;100638.92;1670804;84;25810;-70
2021/07/16 08:28:47;;;;;;;21.07;11.65;;;;;;;24.74;65.24;100649.64;1670718;84;27083;-71
2021/07/16 08:31:13;;;;;;;17.37;12.35;;;;;;;24.80;65.15;100651.75;1665314;84;26519;-68
2021/07/16 08:33:43;;;;;;;19.20;12.53;;;;;;;24.89;65.09;100653.55;1675644;83;25806;-68
2021/07/16 08:36:11;;;;;;;20.90;11.43;;;;;;;25.02;64.97;100654.54;1674310;83;27068;-72
2021/07/16 08:38:37;;;;;;;23.73;11.65;;;;;;;25.10;64.80;100651.86;1661984;84;25887;-71
2021/07/16 08:41:03;;;;;;;21.27;12.05;;;;;;;25.21;64.77;100652.97;1671595;82;28249;-71
2021/07/16 08:43:32;;;;;;;28.98;12.07;;;;;;;25.32;64.65;100644.98;1675516;82;25837;-71
2021/07/16 08:45:58;;;;;;;23.47;11.63;;;;;;;25.40;64.52;100649.66;1664327;82;25791;-71
2021/07/16 08:48:25;;;;;;;24.27;13.25;;;;;;;25.56;64.33;100653.37;1661490;82;25989;-70
2021/07/16 08:50:52;;;;;;;21.82;11.85;;;;;;;25.58;64.24;100655.09;1671461;82;25827;-70
2021/07/16 08:53:21;;;;;;;22.77;11.38;;;;;;;25.62;63.95;100653.23;1670353;82;27850;-70
2021/07/16 08:55:49;;;;;;;19.60;12.30;;;;;;;25.57;63.75;100652.86;1668072;82;25727;-70
2021/07/16 08:58:16;;;;;;;16.40;10.55;;;;;;;25.64;63.78;100656.67;1669583;82;25721;-69
2021/07/16 09:00:43;;;;;;;15.78;11.12;;;;;;;25.69;63.60;100661.19;1672503;83;26169;-70
2021/07/16 09:03:13;;;;;;;18.67;11.83;;;;;;;25.72;63.25;100661.38;1666293;83;25760;-68
2021/07/16 09:05:42;;;;;;;18.52;10.82;;;;;;;25.74;63.29;100662.07;1662184;84;28261;-72
2021/07/16 09:08:22;;;;;;;22.87;10.72;;;;;;;25.87;63.22;100666.59;1653619;84;25542;-67
2021/07/16 09:10:54;;;;;;;15.40;9.43;;;;;;;25.92;62.90;100668.34;1657849;84;25867;-68
2021/07/16 09:13:23;;;;;;;17.90;9.03;;;;;;;26.00;62.79;100668.88;1651082;85;26140;-72
2021/07/16 09:15:59;;;;;;;20.52;9.53;;;;;;;26.04;62.43;100670.24;1642288;85;25882;-69
2021/07/16 09:18:29;;;;;;;13.18;9.10;;;;;;;26.06;62.28;100673.69;1651563;85;28393;-66
2021/07/16 09:21:08;;;;;;;15.25;9.13;;;;;;;26.09;61.87;100676.10;1648666;85;25772;-69
2021/07/16 09:23:46;;;;;;;17.82;8.95;;;;;;;26.10;61.83;100679.19;1647170;85;25721;-70
2021/07/16 09:26:26;;;;;;;18.65;9.20;;;;;;;26.20;61.68;100688.16;1648799;85;26013;-69
2021/07/16 09:28:52;;;;;;;13.95;9.38;;;;;;;26.22;61.27;100679.23;1649183;85;25811;-70
2021/07/16 09:31:27;;;;;;;11.43;7.47;;;;;;;26.21;61.06;100682.50;1651774;85;28406;-69
2021/07/16 09:34:01;;;;;;;12.28;7.85;;;;;;;26.06;60.46;100677.29;1643474;85;25923;-68
2021/07/16 09:36:38;;;;;;;15.25;7.67;;;;;;;26.12;60.74;100675.77;1648110;84;25889;-70
2021/07/16 09:39:12;;;;;;;15.50;8.13;;;;;;;26.19;60.29;100677.69;1647243;85;26853;-70
2021/07/16 09:41:55;;;;;;;24.60;9.03;;;;;;;26.25;60.21;100680.80;1649055;85;25872;-71
2021/07/16 09:44:32;;;;;;;17.23;8.83;;;;;;;26.30;59.99;100678.41;1649157;85;27485;-68
2021/07/16 09:47:17;;;;;;;18.15;9.75;;;;;;;26.34;59.55;100675.70;1656710;85;25905;-68
2021/07/16 09:50:10;;;;;;;19.30;9.65;;;;;;;26.43;59.10;100678.81;1648955;85;25936;-69
2021/07/16 09:52:37;;;;;;;25.75;10.85;;;;;;;26.45;59.23;100677.63;1645649;85;26081;-71
2021/07/16 09:55:15;;;;;;;22.30;10.65;;;;;;;26.45;58.56;100679.51;1648337;85;25900;-70
2021/07/16 09:57:45;;;;;;;22.10;12.50;;;;;;;26.43;58.64;100678.30;1650083;85;28409;-67
2021/07/16 10:00:25;;;;;;;17.25;12.23;;;;;;;26.53;58.72;100685.03;1650665;85;25793;-67
2021/07/16 10:02:57;;;;;;;22.80;11.63;;;;;;;26.64;59.00;100681.09;1649639;85;25889;-72
2021/07/16 10:05:24;;;;;;;18.70;11.05;;;;;;;26.72;58.58;100672.86;1653137;85;26139;-71
2021/07/16 10:07:52;;;;;;;20.40;11.68;;;;;;;26.80;58.78;100674.23;1659639;84;26626;-71
2021/07/16 10:10:21;;;;;;;13.25;11.33;;;;;;;26.87;58.46;100683.53;1654849;85;27461;-71
2021/07/16 10:12:52;;;;;;;20.72;11.40;;;;;;;26.74;57.84;100675.78;1657649;85;25940;-70
2021/07/16 10:15:21;;;;;;;21.90;13.25;;;;;;;26.51;57.45;100682.45;1659200;85;25783;-70
2021/07/16 10:17:50;;;;;;;20.72;12.25;;;;;;;26.30;58.00;100677.89;1655584;85;26107;-70
2021/07/16 10:20:19;;;;;;;18.50;11.90;;;;;;;26.31;58.24;100686.99;1649384;85;25850;-69
2021/07/16 10:22:48;;;;;;;21.57;13.20;;;;;;;26.26;58.14;100682.00;1653684;85;27564;-70
2021/07/16 10:25:20;;;;;;;20.23;11.85;;;;;;;26.26;58.35;100688.02;1649037;85;25803;-69
2021/07/16 10:27:49;;;;;;;17.48;13.18;;;;;;;26.25;58.50;100684.91;1659568;85;25808;-69
2021/07/16 10:30:25;;;;;;;21.40;13.68;;;;;;;26.19;58.41;100685.92;1652921;85;26025;-70
2021/07/16 10:32:57;;;;;;;20.32;12.40;;;;;;;26.20;58.67;100690.40;1641548;84;26170;-69
2021/07/16 10:35:26;;;;;;;17.57;11.38;;;;;;;26.27;58.77;100686.98;1649384;85;28136;-69
2021/07/16 10:37:59;;;;;;;25.40;12.37;;;;;;;26.32;58.85;100683.25;1649398;85;26036;-68
2021/07/16 10:40:45;;;;;;;23.30;13.88;;;;;;;26.32;58.77;100686.86;1648484;85;25811;-68
2021/07/16 10:43:32;;;;;;;19.10;12.45;;;;;;;26.32;58.74;100690.98;1635489;85;26060;-63
2021/07/16 10:46:03;;;;;;;26.60;12.85;;;;;;;26.19;58.83;100698.29;1640733;85;26598;-64
2021/07/16 10:48:39;;;;;;;25.20;12.80;;;;;;;26.20;58.71;100704.65;1654686;85;27603;-64
2021/07/16 10:51:10;;;;;;;15.00;12.07;;;;;;;26.05;58.95;100698.92;1649348;85;25759;-64
2021/07/16 10:53:39;;;;;;;25.27;13.38;;;;;;;26.01;58.82;100704.39;1649787;85;25756;-64
2021/07/16 10:56:09;;;;;;;22.25;13.22;;;;;;;25.97;59.11;100707.16;1647253;85;26879;-68
2021/07/16 10:58:40;;;;;;;16.02;12.53;;;;;;;26.01;59.13;100703.53;1656454;85;25748;-68
2021/07/16 11:01:11;;;;;;;20.20;12.55;;;;;;;25.98;59.05;100703.38;1648012;85;28025;-69
2021/07/16 11:03:46;;;;;;;18.95;13.68;;;;;;;25.85;59.05;100707.09;1649264;85;25823;-69
2021/07/16 11:06:15;;;;;;;24.07;11.97;;;;;;;25.86;59.34;100714.31;1648278;85;25760;-70
2021/07/16 11:08:47;;;;;;;35.43;12.65;;;;;;;25.93;59.35;100707.65;1649943;85;26189;-69
2021/07/16 11:11:18;;;;;;;28.47;12.43;;;;;;;25.97;59.26;100711.79;1648454;83;25751;-69
2021/07/16 11:13:49;;;;;;;;;;;;;;;25.98;59.22;100716.25;1651973;85;28138;-69
2021/07/16 11:16:27;;;;;;;26.45;12.68;;;;;;;25.98;59.41;100710.25;1655934;85;25874;-69
2021/07/16 11:19:09;;;;;;;20.20;12.03;;;;;;;26.04;59.43;100705.95;1651301;85;25874;-69